METAR AND TAF INFORMATION
METAR FOR PAMY
ADDS - METARS form results

(0927 UTC 21 November 2019)
Data provider http://aviationweather.gov/metar/data/
 
METAR text: PAMY 210856Z AUTO 05015KT 8SM OVC004 M04/M04 A2891 RMK AO2 SLP791 T10441044 400111044 58001 FZRANO
Conditions at: PAMY (MEKORYUK , AK, US) observed 0856 UTC 21 November 2019
Temperature: -4.4°C (24°F)
Dewpoint: -4.4°C (24°F) [RH = 100%]
Pressure (altimeter): 28.91 inches Hg (979.1 mb)
[Sea-level pressure:  979.1 mb]
Winds: from the NE (50 degrees) at 17 MPH (15 knots; 7.7 m/s)
Visibility: 8 miles (13 km)
Ceiling: 400 feet AGL
Clouds: overcast cloud deck at 400 feet AGL
Weather: automated observation with no human augmentation;
there may or may not be significant weather present at this time

 AIRPORT MAP

 RUNWAY INFORMATION
Runway 05 Runway length 3070 ft Runway width 75 ft
Runway elevation 48 ft Runway displaced threshold 0 ft Runway heading 67
Runway 23 Runway length 3070 ft Runway width 75 ft
Runway elevation 48 ft Runway displaced threshold 0 ft Runway heading 247

 AIRPORT FREQUENCIES
Type AWOS Name AWOS 3 Frequency 123.9 MHZ
Type CNTR Name ANCHORAGE Frequency 124.5 MHZ
Type CTAF Name CTAF Frequency 122.9 MHZ
Type FSS Name KENAI RDO Frequency 122 MHZ
Type MISC Name TWEB Frequency 32.3 MHZ

 AIRPORT NEAR NAVIGATION AIDS
Type NDB-DME Name Nanwak Frequency 323 KHZ



We are a FlightSim virtual group and are in no way affiliated with RavnAir Group.

Powered by Virtual Airlines Manager [v2.6.2]